createdAt,value
2018-07-24T18:21:36.873Z,40.9
2018-07-24T18:22:39.937Z,41.5
2018-07-24T18:23:44.493Z,41.7
2018-07-24T18:24:49.181Z,41.6
2018-07-24T18:25:51.428Z,41.8
2018-07-24T18:26:53.500Z,41.3
2018-07-24T18:27:55.249Z,42.0
2018-07-24T18:28:59.571Z,41.6
2018-07-24T18:30:01.837Z,41.9
2018-07-24T18:31:03.443Z,41.9
2018-07-24T18:32:05.193Z,41.8
2018-07-24T18:33:06.886Z,41.9
2018-07-24T18:34:08.720Z,41.9
2018-07-24T18:35:11.059Z,42.0
2018-07-24T18:36:14.126Z,42.1
2018-07-24T18:37:15.747Z,42.3
2018-07-24T18:38:17.524Z,42.7
2018-07-24T18:39:19.332Z,42.5
2018-07-24T18:40:21.277Z,42.5
2018-07-24T18:41:23.009Z,43.0
2018-07-24T18:42:24.908Z,43.1
2018-07-24T18:43:26.717Z,43.1
2018-07-24T18:44:28.398Z,43.1
2018-07-24T18:45:30.335Z,43.3
2018-07-24T18:46:32.292Z,43.7
2018-07-24T18:47:33.972Z,43.9
2018-07-24T18:48:35.834Z,44.1
2018-07-24T18:49:37.517Z,44.7
2018-07-24T18:50:39.287Z,45.1
2018-07-24T18:51:41.288Z,45.0
2018-07-24T18:52:43.061Z,45.1
2018-07-24T18:53:44.708Z,45.5
2018-07-24T18:54:46.328Z,46.0
2018-07-24T18:55:47.979Z,46.0
2018-07-24T18:56:49.514Z,46.1
2018-07-24T18:57:52.832Z,45.8
2018-07-24T18:58:56.052Z,46.4
2018-07-24T18:59:58.779Z,46.6
2018-07-24T19:01:00.782Z,47.0
2018-07-24T19:02:03.105Z,47.2
2018-07-24T19:03:05.091Z,47.2
2018-07-24T19:04:06.864Z,47.1
2018-07-24T19:05:09.121Z,47.4
2018-07-24T19:06:11.817Z,47.8
2018-07-24T19:07:13.329Z,48.0
2018-07-24T19:08:14.827Z,48.7
2018-07-24T19:09:16.422Z,48.0
2018-07-24T19:10:17.968Z,48.4
2018-07-24T19:11:19.578Z,48.3
2018-07-24T19:12:21.164Z,48.6
2018-07-24T19:13:22.719Z,49.0
2018-07-24T19:14:24.278Z,48.7
2018-07-24T19:15:25.976Z,49.2
2018-07-24T19:16:27.516Z,49.1
2018-07-24T19:17:29.078Z,49.0
2018-07-24T19:18:30.621Z,48.8
2018-07-24T19:19:32.193Z,48.9
2018-07-24T19:20:33.774Z,49.4
2018-07-24T19:21:35.345Z,49.3
2018-07-24T19:22:36.897Z,49.7
2018-07-24T19:23:38.511Z,49.8
2018-07-24T19:24:40.021Z,50.2
2018-07-24T19:25:41.648Z,50.5
2018-07-24T19:26:43.258Z,49.8
2018-07-24T19:27:44.898Z,50.2
2018-07-24T19:28:46.532Z,50.5
2018-07-24T19:29:48.057Z,50.5
2018-07-24T19:30:49.621Z,50.6
2018-07-24T19:31:51.203Z,50.9
2018-07-24T19:32:52.699Z,50.7
2018-07-24T19:33:54.250Z,50.9
2018-07-24T19:34:55.848Z,51.0
2018-07-24T19:35:57.345Z,51.4
2018-07-24T19:37:00.987Z,51.5
2018-07-24T19:38:03.545Z,51.4
2018-07-24T19:39:05.037Z,51.4
2018-07-24T19:40:06.604Z,51.6
2018-07-24T19:41:08.095Z,51.5
2018-07-24T19:42:09.584Z,52.1
2018-07-24T19:43:11.160Z,52.7
2018-07-24T19:44:12.833Z,52.6
2018-07-24T19:45:14.519Z,52.5
2018-07-24T19:46:16.055Z,53.0
2018-07-24T19:47:17.640Z,52.6
2018-07-24T19:48:19.236Z,52.6
2018-07-24T19:49:20.845Z,52.8
2018-07-24T19:50:22.333Z,53.3
2018-07-24T19:51:23.964Z,53.4
2018-07-24T19:52:25.531Z,53.6
2018-07-24T19:53:27.277Z,54.0
2018-07-24T19:54:28.789Z,53.8
2018-07-24T19:55:30.554Z,53.9
2018-07-24T19:56:32.097Z,54.5
2018-07-24T19:57:33.661Z,54.6
2018-07-24T19:58:35.182Z,54.5
2018-07-24T19:59:36.703Z,54.9
2018-07-24T20:00:38.247Z,54.8
2018-07-24T20:01:39.752Z,54.4
2018-07-24T20:02:41.365Z,54.5
2018-07-24T20:03:42.996Z,54.8
2018-07-24T20:04:44.485Z,54.8
2018-07-24T20:05:46.019Z,55.4
2018-07-24T20:06:47.592Z,55.2
2018-07-24T20:07:49.148Z,55.2
2018-07-24T20:08:50.706Z,55.5
2018-07-24T20:09:52.245Z,55.5
2018-07-24T20:10:54.107Z,55.4
2018-07-24T20:11:55.825Z,55.5
2018-07-24T20:12:57.380Z,55.8
2018-07-24T20:13:59.035Z,55.6
2018-07-24T20:15:00.763Z,55.4
2018-07-24T20:16:02.303Z,56.2
2018-07-24T20:17:03.849Z,56.1
2018-07-24T20:18:05.784Z,55.5
2018-07-24T20:19:07.375Z,56.0
2018-07-24T20:20:09.070Z,56.5
2018-07-24T20:21:11.876Z,56.5
2018-07-24T20:22:13.696Z,56.2
2018-07-24T20:23:15.423Z,57.2
2018-07-24T20:24:17.151Z,56.6
2018-07-24T20:25:18.771Z,56.8
2018-07-24T20:26:20.383Z,57.1
2018-07-24T20:27:22.475Z,57.3
2018-07-24T20:28:24.687Z,57.7
2018-07-24T20:29:26.320Z,57.8
2018-07-24T20:30:27.880Z,58.6
2018-07-24T20:31:29.491Z,58.8
2018-07-24T20:32:32.206Z,59.3
2018-07-24T20:33:33.910Z,59.3
2018-07-24T20:34:36.477Z,59.4
2018-07-24T20:35:43.639Z,59.7
2018-07-24T20:36:47.913Z,60.0
2018-07-24T20:37:49.788Z,59.5
2018-07-24T20:38:52.275Z,60.4
2018-07-24T20:39:54.673Z,60.4
2018-07-24T20:40:56.144Z,60.5
2018-07-24T20:41:57.916Z,60.5
2018-07-24T20:42:59.626Z,60.0
2018-07-24T20:44:01.459Z,60.1
2018-07-24T20:45:03.139Z,60.6
2018-07-24T20:46:05.053Z,60.3
2018-07-24T20:47:06.719Z,60.3
2018-07-24T20:48:09.119Z,59.5
2018-07-24T20:49:11.079Z,60.8
2018-07-24T20:50:12.678Z,60.5
2018-07-24T20:51:14.457Z,60.4
2018-07-24T20:52:16.141Z,60.4
2018-07-24T20:53:24.245Z,60.0
2018-07-24T20:54:25.748Z,60.2
2018-07-24T20:55:33.087Z,60.9
2018-07-24T20:56:34.653Z,60.8
2018-07-24T20:57:46.220Z,62.0
2018-07-24T20:58:48.313Z,61.3
2018-07-24T20:59:49.969Z,61.1
2018-07-24T21:00:52.078Z,60.8
2018-07-24T21:01:54.795Z,61.7
2018-07-24T21:02:56.419Z,62.0
2018-07-24T21:03:58.061Z,61.9
2018-07-24T21:05:00.984Z,61.9
2018-07-24T21:06:03.387Z,61.9
2018-07-24T21:07:05.050Z,61.9
2018-07-24T21:08:06.740Z,62.3
2018-07-24T21:09:08.375Z,62.2
2018-07-24T21:10:10.015Z,62.2
2018-07-24T21:11:11.562Z,61.7
2018-07-24T21:12:13.150Z,62.2
2018-07-24T21:13:14.702Z,62.4
2018-07-24T21:14:16.224Z,62.6
2018-07-24T21:15:17.853Z,62.2
2018-07-24T21:16:19.533Z,62.1
2018-07-24T21:17:21.351Z,62.0
2018-07-24T21:18:22.964Z,62.7
2018-07-24T21:19:24.580Z,62.8
2018-07-24T21:20:26.217Z,62.5
2018-07-24T21:21:27.776Z,63.2
2018-07-24T21:22:29.374Z,62.3
2018-07-24T21:23:30.906Z,63.0
2018-07-24T21:24:32.520Z,63.1
2018-07-24T21:25:34.003Z,63.3
2018-07-24T21:26:35.582Z,62.2
2018-07-24T21:27:37.097Z,62.4
2018-07-24T21:28:38.781Z,63.3
2018-07-24T21:29:40.334Z,63.8
2018-07-24T21:30:41.952Z,63.5
2018-07-24T21:31:43.608Z,63.4
2018-07-24T21:32:45.133Z,63.6
2018-07-24T21:33:46.666Z,63.5
2018-07-24T21:34:48.240Z,64.0
2018-07-24T21:35:49.787Z,63.2
2018-07-24T21:36:51.320Z,63.7
2018-07-24T21:37:52.903Z,63.7
2018-07-24T21:38:54.479Z,63.5
2018-07-24T21:39:56.018Z,63.9
2018-07-24T21:40:57.544Z,63.9
2018-07-24T21:41:59.074Z,63.9
2018-07-24T21:43:00.687Z,63.8
2018-07-24T21:44:02.251Z,64.0
2018-07-24T21:45:03.822Z,63.7
2018-07-24T21:46:05.418Z,64.5
2018-07-24T21:47:06.938Z,64.7
2018-07-24T21:48:08.593Z,64.6
2018-07-24T21:49:10.196Z,65.1
2018-07-24T21:50:11.680Z,65.1
2018-07-24T21:51:13.319Z,64.8
2018-07-24T21:52:14.912Z,65.3
2018-07-24T21:53:16.462Z,65.1
2018-07-24T21:54:18.030Z,65.4
2018-07-24T21:55:19.587Z,65.4
2018-07-24T21:56:21.193Z,66.2
2018-07-24T21:57:22.811Z,66.3
2018-07-24T21:58:24.360Z,65.9
2018-07-24T21:59:25.892Z,66.1
2018-07-24T22:00:27.455Z,66.5
2018-07-24T22:01:29.091Z,66.6
2018-07-24T22:02:30.696Z,67.0
2018-07-24T22:03:32.220Z,66.8
2018-07-24T22:04:33.787Z,66.3
2018-07-24T22:05:35.432Z,67.2
2018-07-24T22:06:36.991Z,65.9
2018-07-24T22:07:38.523Z,66.4
2018-07-24T22:08:40.176Z,66.6
2018-07-24T22:09:41.633Z,67.4
2018-07-24T22:10:43.158Z,66.7
2018-07-24T22:11:44.727Z,66.7
2018-07-24T22:12:46.318Z,66.8
2018-07-24T22:13:47.865Z,67.9
2018-07-24T22:14:49.434Z,67.7
2018-07-24T22:15:51.026Z,68.0
2018-07-24T22:16:52.645Z,67.7
2018-07-24T22:17:54.220Z,68.0
2018-07-24T22:18:55.749Z,67.7
2018-07-24T22:19:57.584Z,68.5
2018-07-24T22:20:59.272Z,68.3
2018-07-24T22:22:00.829Z,68.2
2018-07-24T22:23:02.428Z,68.2
2018-07-24T22:24:03.993Z,68.1
2018-07-24T22:25:05.722Z,67.9
2018-07-24T22:26:07.440Z,68.0
2018-07-24T22:27:09.098Z,68.3
2018-07-24T22:28:10.702Z,68.1
2018-07-24T22:29:12.263Z,68.6
2018-07-24T22:30:13.864Z,68.2
2018-07-24T22:31:15.400Z,68.2
2018-07-24T22:32:16.990Z,69.1
2018-07-24T22:33:18.568Z,69.2
2018-07-24T22:34:20.184Z,69.2
2018-07-24T22:35:21.800Z,69.4
2018-07-24T22:36:23.417Z,69.2
2018-07-24T22:37:24.964Z,70.4
2018-07-24T22:38:26.531Z,70.1
2018-07-24T22:39:28.150Z,70.0
2018-07-24T22:40:29.704Z,70.1
2018-07-24T22:41:31.275Z,70.0
2018-07-24T22:42:32.837Z,70.1
2018-07-24T22:43:34.412Z,70.5
2018-07-24T22:44:35.957Z,70.6
2018-07-24T22:45:37.523Z,70.5
2018-07-24T22:46:39.124Z,70.5
2018-07-24T22:47:40.666Z,70.3
2018-07-24T22:48:42.293Z,71.5
2018-07-24T22:49:43.942Z,71.3
2018-07-24T22:50:45.462Z,71.6
2018-07-24T22:51:47.047Z,71.9
2018-07-24T22:52:48.589Z,72.0
2018-07-24T22:53:50.157Z,71.8
2018-07-24T22:54:51.758Z,71.7
2018-07-24T22:55:53.315Z,72.2
2018-07-24T22:56:54.912Z,72.7
2018-07-24T22:57:56.472Z,72.8
2018-07-24T22:58:58.077Z,72.7
2018-07-24T22:59:59.727Z,72.4
2018-07-24T23:01:01.304Z,72.2
2018-07-24T23:02:02.871Z,72.2
2018-07-24T23:03:04.440Z,72.7
2018-07-24T23:04:05.968Z,72.3
2018-07-24T23:05:07.559Z,71.9
2018-07-24T23:06:09.639Z,71.7
2018-07-24T23:07:11.139Z,72.8
2018-07-24T23:08:12.741Z,72.9
2018-07-24T23:09:14.308Z,73.0
2018-07-24T23:10:15.880Z,72.1
2018-07-24T23:11:17.595Z,72.1
2018-07-24T23:12:19.212Z,72.2
2018-07-24T23:13:20.750Z,73.0
2018-07-24T23:14:22.352Z,72.8
2018-07-24T23:15:24.051Z,73.0
2018-07-24T23:16:25.561Z,72.9
2018-07-24T23:17:27.158Z,73.6
2018-07-24T23:18:28.750Z,73.4
2018-07-24T23:19:30.276Z,73.2
2018-07-24T23:20:32.007Z,73.3
2018-07-24T23:21:33.447Z,73.6
2018-07-24T23:22:35.055Z,73.2
2018-07-24T23:23:36.628Z,72.7
2018-07-24T23:24:38.156Z,72.9
2018-07-24T23:25:39.744Z,72.9
2018-07-24T23:26:41.270Z,73.1
2018-07-24T23:27:42.947Z,73.4
2018-07-24T23:28:44.568Z,73.3
2018-07-24T23:29:46.207Z,73.4
2018-07-24T23:30:47.800Z,73.8
2018-07-24T23:31:49.376Z,74.2
2018-07-24T23:32:50.935Z,74.6
2018-07-24T23:33:52.500Z,75.1
2018-07-24T23:34:54.227Z,75.1
2018-07-24T23:35:56.053Z,74.9
2018-07-24T23:36:57.657Z,75.0
2018-07-24T23:37:59.261Z,75.1
2018-07-24T23:39:00.855Z,75.0
2018-07-24T23:40:02.672Z,75.2
2018-07-24T23:41:04.153Z,74.9
2018-07-24T23:42:06.378Z,75.3
2018-07-24T23:43:08.151Z,74.8
2018-07-24T23:44:09.717Z,75.0
2018-07-24T23:45:11.264Z,75.0
2018-07-24T23:46:12.805Z,75.5
2018-07-24T23:47:14.392Z,75.6
2018-07-24T23:48:16.128Z,76.0
2018-07-24T23:49:17.644Z,76.0
2018-07-24T23:50:19.234Z,76.1
2018-07-24T23:51:20.846Z,76.1
2018-07-24T23:52:22.451Z,76.0
2018-07-24T23:53:24.692Z,76.1
2018-07-24T23:54:26.093Z,76.1
2018-07-24T23:55:27.655Z,75.9
2018-07-24T23:56:29.186Z,76.2
2018-07-24T23:57:30.760Z,76.2
2018-07-24T23:58:32.283Z,76.4
2018-07-24T23:59:33.800Z,76.3
